createdAt,value
2018-05-21T00:02:45.720Z,4.93
2018-05-21T00:07:37.430Z,4.57
2018-05-21T00:12:29.837Z,4.90
2018-05-21T00:17:21.504Z,4.67
2018-05-21T00:22:12.491Z,4.73
2018-05-21T00:27:04.159Z,4.90
2018-05-21T00:31:55.134Z,4.57
2018-05-21T00:36:46.813Z,4.73
2018-05-21T00:41:37.744Z,4.53
2018-05-21T00:46:28.715Z,4.73
2018-05-21T00:51:20.440Z,4.97
2018-05-21T00:56:12.856Z,4.60
2018-05-21T01:01:03.811Z,4.70
2018-05-21T01:05:54.693Z,4.20
2018-05-21T01:10:46.369Z,4.30
2018-05-21T01:15:37.361Z,4.50
2018-05-21T01:20:28.293Z,4.07
2018-05-21T01:25:19.212Z,3.63
2018-05-21T01:30:10.133Z,3.70
2018-05-21T01:35:01.052Z,3.97
2018-05-21T01:39:53.745Z,4.10
2018-05-21T01:44:45.439Z,3.97
2018-05-21T01:49:36.329Z,3.67
2018-05-21T01:54:27.983Z,4.00
2018-05-21T01:59:18.899Z,3.67
2018-05-21T02:04:09.852Z,3.90
2018-05-21T02:09:00.754Z,4.33
2018-05-21T02:13:51.692Z,3.90
2018-05-21T02:18:42.629Z,3.97
2018-05-21T02:23:33.577Z,4.20
2018-05-21T02:28:25.221Z,4.25
2018-05-21T02:33:16.889Z,3.57
2018-05-21T02:38:07.869Z,3.80
2018-05-21T02:42:59.522Z,3.50
2018-05-21T02:47:51.155Z,3.50
2018-05-21T02:52:42.834Z,3.23
2018-05-21T02:57:33.890Z,3.63
2018-05-21T03:02:26.295Z,3.20
2018-05-21T03:07:17.217Z,3.77
2018-05-21T03:12:08.104Z,3.90
2018-05-21T03:16:59.833Z,3.80
2018-05-21T03:21:50.755Z,3.57
2018-05-21T03:26:42.429Z,3.87
2018-05-21T03:31:33.342Z,3.13
2018-05-21T03:36:25.000Z,3.20
2018-05-21T03:41:15.930Z,3.40
2018-05-21T03:46:06.847Z,3.60
2018-05-21T03:50:58.527Z,3.47
2018-05-21T03:55:49.432Z,3.77
2018-05-21T04:01:37.160Z,3.70
2018-05-21T04:06:28.054Z,3.40
2018-05-21T04:11:19.839Z,3.40
2018-05-21T04:16:10.754Z,3.60
2018-05-21T04:21:01.723Z,3.60
2018-05-21T04:25:53.331Z,3.33
2018-05-21T04:30:44.304Z,3.40
2018-05-21T04:35:35.303Z,3.67
2018-05-21T04:40:27.018Z,3.80
2018-05-21T04:45:19.435Z,3.90
2018-05-21T04:50:10.377Z,3.60
2018-05-21T04:55:02.058Z,3.63
2018-05-21T04:59:54.481Z,3.90
2018-05-21T05:04:46.194Z,3.90
2018-05-21T05:09:37.104Z,4.03
2018-05-21T05:14:28.011Z,4.07
2018-05-21T05:19:19.709Z,3.67
2018-05-21T05:24:10.597Z,3.80
2018-05-21T05:29:01.545Z,3.63
2018-05-21T05:33:52.432Z,4.10
2018-05-21T05:38:43.363Z,3.80
2018-05-21T05:43:35.042Z,4.13
2018-05-21T05:48:27.451Z,3.43
2018-05-21T05:53:18.381Z,4.00
2018-05-21T05:58:09.363Z,3.92
2018-05-21T06:03:00.998Z,3.83
2018-05-21T06:07:52.671Z,3.90
2018-05-21T06:12:44.457Z,3.70
2018-05-21T06:17:35.333Z,3.70
2018-05-21T06:22:26.956Z,3.40
2018-05-21T06:27:17.891Z,3.50
2018-05-21T06:32:08.825Z,3.67
2018-05-21T06:36:59.722Z,3.30
2018-05-21T06:41:51.437Z,3.27
2018-05-21T06:46:43.125Z,3.50
2018-05-21T06:51:34.154Z,3.53
2018-05-21T06:56:25.092Z,3.47
2018-05-21T07:01:16.039Z,3.20
2018-05-21T07:06:07.697Z,3.20
2018-05-21T07:10:59.351Z,2.90
2018-05-21T07:15:51.024Z,3.20
2018-05-21T07:20:43.404Z,2.90
2018-05-21T07:25:35.069Z,2.70
2018-05-21T07:30:26.708Z,3.10
2018-05-21T07:35:18.628Z,2.70
2018-05-21T07:40:10.999Z,3.13
2018-05-21T07:45:02.658Z,3.00
2018-05-21T07:49:53.578Z,2.33
2018-05-21T07:54:44.494Z,2.43
2018-05-21T07:59:35.431Z,2.20
2018-05-21T08:04:26.410Z,2.70
2018-05-21T08:09:17.311Z,2.50
2018-05-21T08:14:08.963Z,2.20
2018-05-21T08:18:59.935Z,2.37
2018-05-21T08:23:50.852Z,2.20
2018-05-21T08:28:41.755Z,2.30
2018-05-21T08:33:32.761Z,2.10
2018-05-21T08:38:23.724Z,2.37
2018-05-21T08:43:14.710Z,2.13
2018-05-21T08:48:05.629Z,2.33
2018-05-21T08:52:56.876Z,2.23
2018-05-21T08:57:48.545Z,2.07
2018-05-21T09:02:39.460Z,2.30
2018-05-21T09:07:30.393Z,2.33
2018-05-21T09:12:22.138Z,2.83
2018-05-21T09:17:13.714Z,2.40
2018-05-21T09:22:04.608Z,2.50
2018-05-21T09:26:56.243Z,2.60
2018-05-21T09:31:47.958Z,2.37
2018-05-21T09:36:40.381Z,2.70
2018-05-21T09:41:31.258Z,2.70
2018-05-21T09:46:22.949Z,2.50
2018-05-21T09:51:15.668Z,2.43
2018-05-21T09:56:07.332Z,2.80
2018-05-21T10:00:58.995Z,2.83
2018-05-21T10:05:49.878Z,3.47
2018-05-21T10:10:40.862Z,2.70
2018-05-21T10:15:32.553Z,3.03
2018-05-21T10:20:23.465Z,2.43
2018-05-21T10:25:14.405Z,2.90
2018-05-21T10:30:05.312Z,2.67
2018-05-21T10:34:56.275Z,2.80
2018-05-21T10:39:47.175Z,2.83
2018-05-21T10:44:39.575Z,3.03
2018-05-21T10:49:31.990Z,3.17
2018-05-21T10:54:22.876Z,3.00
2018-05-21T10:59:14.563Z,3.13
2018-05-21T11:04:06.972Z,3.47
2018-05-21T11:08:58.656Z,2.90
2018-05-21T11:13:49.549Z,3.30
2018-05-21T11:18:40.529Z,3.17
2018-05-21T11:23:32.144Z,3.33
2018-05-21T11:28:23.829Z,3.20
2018-05-21T11:33:14.712Z,2.97
2018-05-21T11:38:06.381Z,3.10
2018-05-21T11:42:58.066Z,2.57
2018-05-21T11:47:48.972Z,2.50
2018-05-21T11:52:39.941Z,2.53
2018-05-21T11:57:31.572Z,2.67
2018-05-21T12:02:23.651Z,2.57
2018-05-21T12:07:14.539Z,2.50
2018-05-21T12:12:06.220Z,2.80
2018-05-21T12:16:57.848Z,2.57
2018-05-21T12:21:49.582Z,2.50
2018-05-21T12:26:41.325Z,2.33
2018-05-21T12:31:32.239Z,2.17
2018-05-21T12:36:23.864Z,2.60
2018-05-21T12:41:14.793Z,2.80
2018-05-21T12:46:05.735Z,2.53
2018-05-21T12:50:57.350Z,3.00
2018-05-21T12:55:48.239Z,2.40
2018-05-21T13:00:39.906Z,2.17
2018-05-21T13:05:31.641Z,2.70
2018-05-21T13:10:23.251Z,2.43
2018-05-21T13:15:15.675Z,2.57
2018-05-21T13:20:07.275Z,2.57
2018-05-21T13:24:58.208Z,2.80
2018-05-21T13:29:49.865Z,2.20
2018-05-21T13:34:40.855Z,2.53
2018-05-21T13:39:31.683Z,3.43
2018-05-21T13:44:22.585Z,2.73
2018-05-21T13:49:13.480Z,2.73
2018-05-21T13:54:05.101Z,2.27
2018-05-21T13:58:56.838Z,2.40
2018-05-21T14:03:48.453Z,2.60
2018-05-21T14:08:39.442Z,2.40
2018-05-21T14:13:30.372Z,3.00
2018-05-21T14:18:21.255Z,2.27
2018-05-21T14:23:12.933Z,2.43
2018-05-21T14:28:04.568Z,2.50
2018-05-21T14:32:56.266Z,2.57
2018-05-21T14:37:47.942Z,2.47
2018-05-21T14:42:39.548Z,2.60
2018-05-21T14:47:31.287Z,2.40
2018-05-21T14:52:22.928Z,2.70
2018-05-21T14:57:14.569Z,2.40
2018-05-21T15:02:05.621Z,2.70
2018-05-21T15:06:56.407Z,2.60
2018-05-21T15:11:47.305Z,2.30
2018-05-21T15:16:38.953Z,2.47
2018-05-21T15:21:30.615Z,2.60
2018-05-21T15:26:22.261Z,3.80
2018-05-21T15:31:13.928Z,3.50
2018-05-21T15:36:05.041Z,3.23
2018-05-21T15:40:55.941Z,3.73
2018-05-21T15:45:46.884Z,3.37
2018-05-21T15:50:37.744Z,2.47
2018-05-21T15:55:29.389Z,2.80
2018-05-21T16:00:21.790Z,3.30
2018-05-21T16:05:13.525Z,2.53
2018-05-21T16:10:04.445Z,2.10
2018-05-21T16:14:55.471Z,2.53
2018-05-21T16:19:46.418Z,2.50
2018-05-21T16:24:37.272Z,2.60
2018-05-21T16:29:28.910Z,2.40
2018-05-21T16:34:20.562Z,2.73
2018-05-21T16:39:11.502Z,2.77
2018-05-21T16:44:02.399Z,3.13
2018-05-21T16:48:54.075Z,2.87
2018-05-21T16:53:45.809Z,2.60
2018-05-21T16:58:37.385Z,2.60
2018-05-21T17:03:29.023Z,2.67
2018-05-21T17:08:20.703Z,2.53
2018-05-21T17:13:11.652Z,2.43
2018-05-21T17:18:03.271Z,2.90
2018-05-21T17:22:54.983Z,3.20
2018-05-21T17:27:46.631Z,2.60
2018-05-21T17:32:38.275Z,2.40
2018-05-21T17:37:29.928Z,2.33
2018-05-21T17:42:21.683Z,2.30
2018-05-21T17:47:12.476Z,2.73
2018-05-21T17:52:04.217Z,3.57
2018-05-21T17:56:55.900Z,2.70
2018-05-21T18:01:46.817Z,2.50
2018-05-21T18:06:37.809Z,2.70
2018-05-21T18:11:29.480Z,2.70
2018-05-21T18:16:20.405Z,2.80
2018-05-21T18:21:12.775Z,2.90
2018-05-21T18:26:05.187Z,2.50
2018-05-21T18:30:56.123Z,2.60
2018-05-21T18:35:48.908Z,2.90
2018-05-21T18:40:41.238Z,2.90
2018-05-21T18:45:32.249Z,2.73
2018-05-21T18:50:23.140Z,3.07
2018-05-21T18:55:14.088Z,2.83
2018-05-21T19:00:05.048Z,2.97
2018-05-21T19:04:55.956Z,3.43
2018-05-21T19:09:48.436Z,3.23
2018-05-21T19:14:39.364Z,3.60
2018-05-21T19:19:30.334Z,3.20
2018-05-21T19:24:21.213Z,2.83
2018-05-21T19:29:12.157Z,3.10
2018-05-21T19:34:03.075Z,3.10
2018-05-21T19:38:54.096Z,3.00
2018-05-21T19:43:45.108Z,3.20
2018-05-21T19:48:36.030Z,3.50
2018-05-21T19:53:27.676Z,3.47
2018-05-21T19:58:19.334Z,3.40
2018-05-21T20:03:10.272Z,3.43
2018-05-21T20:08:01.279Z,3.40
2018-05-21T20:12:52.199Z,3.70
2018-05-21T20:17:43.189Z,3.90
2018-05-21T20:22:35.568Z,4.23
2018-05-21T20:27:26.472Z,4.23
2018-05-21T20:32:18.182Z,4.27
2018-05-21T20:37:09.946Z,5.67
2018-05-21T20:42:00.762Z,4.67
2018-05-21T20:46:51.689Z,4.43
2018-05-21T20:51:43.328Z,4.20
2018-05-21T20:56:34.983Z,4.47
2018-05-21T21:01:25.870Z,3.93
2018-05-21T21:06:16.774Z,4.00
2018-05-21T21:11:07.685Z,3.83
2018-05-21T21:15:59.331Z,4.10
2018-05-21T21:20:50.212Z,4.13
2018-05-21T21:25:41.133Z,3.93
2018-05-21T21:30:32.767Z,4.10
2018-05-21T21:35:24.502Z,4.80
2018-05-21T21:40:16.174Z,4.10
2018-05-21T21:45:08.578Z,4.07
2018-05-21T21:49:59.472Z,4.20
2018-05-21T21:54:51.885Z,4.07
2018-05-21T21:59:42.769Z,4.00
2018-05-21T22:04:33.667Z,4.37
2018-05-21T22:09:25.303Z,4.12
2018-05-21T22:17:33.115Z,3.80
2018-05-21T22:22:24.006Z,4.70
2018-05-21T22:27:15.656Z,4.40
2018-05-21T22:32:06.552Z,3.80
2018-05-21T22:36:58.192Z,3.73
2018-05-21T22:41:49.844Z,3.93
2018-05-21T22:46:40.738Z,3.80
2018-05-21T22:51:32.370Z,3.60
2018-05-21T22:56:24.023Z,3.70
2018-05-21T23:01:15.658Z,3.90
2018-05-21T23:06:07.312Z,3.83
2018-05-21T23:10:58.925Z,3.30
2018-05-21T23:15:49.973Z,3.80
2018-05-21T23:20:40.874Z,4.00
2018-05-21T23:25:31.769Z,3.80
2018-05-21T23:30:23.400Z,4.03
2018-05-21T23:35:15.796Z,3.63
2018-05-21T23:40:07.497Z,3.80
2018-05-21T23:44:58.407Z,3.50
2018-05-21T23:49:50.056Z,3.67
2018-05-21T23:54:41.697Z,4.10
2018-05-21T23:59:32.677Z,4.33
